Time;durP1;ratioP1;P1;durP2;ratioP2;P2;SDS_P1;SDS_P2;PMS_P1;PMS_P2;Temp;Humidity;BMP_temperature;BMP_pressure;BME280_temperature;BME280_humidity;BME280_pressure;Samples;Min_cycle;Max_cycle;Signal;HPM_P1;HPM_P2
2022/04/08 10:40:05;;;;;;;;;;;;;;;;;;1569283;27;83559;-69
2022/04/08 10:40:50;;;;;;;;;;;;;;;;;;1568498;27;83433;-69
2022/04/08 10:41:35;;;;;;;;;;;;;;;;;;1556473;27;83886;-69
2022/04/08 10:42:20;;;;;;;;;;;;;;;;;;1555617;28;83553;-69
2022/04/08 10:43:06;;;;;;;;;;;;;;;;;;1555907;28;83489;-69
2022/04/08 10:43:52;;;;;;;;;;;;;;;;;;1555908;28;83159;-69
2022/04/08 10:44:37;;;;;;;;;;;;;;;;;;1555757;28;83370;-69
2022/04/08 10:45:22;;;;;;;;;;;;;;;;;;1555694;28;83366;-69
2022/04/08 10:46:07;;;;;;;;;;;;;;;;;;1555963;28;83401;-69
2022/04/08 10:46:52;;;;;;;;;;;;;;;;;;1556021;28;83339;-69
2022/04/08 10:47:37;;;;;;;;;;;;;;;;;;1555791;28;83371;-69
2022/04/08 10:48:23;;;;;;;;;;;;;;;;;;1555720;28;83102;-69
2022/04/08 10:49:08;;;;;;;;;;;;;;;;;;1549767;28;83368;-69
2022/04/08 10:49:53;;;;;;;;;;;;;;;;;;1549652;28;83298;-70
2022/04/08 10:50:38;;;;;;;;;;;;;;;;;;1551214;28;84560;-69
2022/04/08 10:51:24;;;;;;;;;;;;;;;;;;1550312;28;83524;-69
2022/04/08 10:52:09;;;;;;;;;;;;;;;;;;1549317;28;83316;-70
2022/04/08 10:52:54;;;;;;;;;;;;;;;;;;1549543;28;83242;-70
2022/04/08 10:53:40;;;;;;;;;;;;;;;;;;1549010;28;83440;-69
2022/04/08 10:54:26;;;;;;;;;;;;;;;;;;1549220;28;83343;-68
2022/04/08 10:55:11;;;;;;;;;;;;;;;;;;1549322;28;83638;-69
2022/04/08 10:55:56;;;;;;;;;;;;;;;;;;1549532;28;83376;-69
2022/04/08 10:56:41;;;;;;;;;;;;;;;;;;1555352;28;84013;-69
2022/04/08 10:57:27;;;;;;;;;;;;;;;;;;1555681;28;83342;-69
2022/04/08 10:58:12;;;;;;;;;;;;;;;;;;1555746;28;83389;-69
2022/04/08 10:58:57;;;;;;;;;;;;;;;;;;1555736;28;83151;-69
2022/04/08 10:59:42;;;;;;;;;;;;;;;;;;1555557;28;83444;-69
2022/04/08 11:00:27;;;;;;;;;;;;;;;;;;1555744;28;83423;-69
2022/04/08 11:01:13;;;;;;;;;;;;;;;;;;1558699;28;82977;-69
2022/04/08 11:02:00;;;;;;;;;;;;;;;;;;1555816;28;83708;-69
2022/04/08 11:02:46;;;;;;;;;;;;;;;;;;1555633;28;83847;-69
2022/04/08 11:03:31;;;;;;;;;;;;;;;;;;1555789;28;83263;-69
2022/04/08 11:04:16;;;;;;;;;;;;;;;;;;1555847;28;83814;-69
2022/04/08 11:05:01;;;;;;;;;;;;;;;;;;1555805;28;83665;-70
2022/04/08 11:05:46;;;;;;;;;;;;;;;;;;1554167;28;83767;-69
2022/04/08 11:06:31;;;;;;;;;;;;;;;;;;1555670;28;83601;-69
2022/04/08 11:07:16;;;;;;;;;;;;;;;;;;1555733;28;83912;-69
2022/04/08 11:08:01;;;;;;;;;;;;;;;;;;1553241;28;83835;-69
2022/04/08 11:08:46;;;;;;;;;;;;;;;;;;1555700;28;84013;-69
2022/04/08 11:09:32;;;;;;;;;;;;;;;;;;1555779;28;83929;-69
2022/04/08 11:10:17;;;;;;;;;;;;;;;;;;1555854;28;83794;-69
2022/04/08 11:11:02;;;;;;;;;;;;;;;;;;1552828;28;83256;-69
2022/04/08 11:11:52;;;;;;;;;;;;;;;;;;1549046;28;83810;-69
2022/04/08 11:12:37;;;;;;;;;;;;;;;;;;1549192;28;85386;-69
2022/04/08 11:13:23;;;;;;;;;;;;;;;;;;1549453;28;83186;-69
2022/04/08 11:14:08;;;;;;;;;;;;;;;;;;1549566;28;83796;-69
2022/04/08 11:14:54;;;;;;;;;;;;;;;;;;1549273;28;86432;-69
2022/04/08 11:15:39;;;;;;;;;;;;;;;;;;1549263;28;83868;-70
2022/04/08 11:16:24;;;;;;;;;;;;;;;;;;1549424;28;83689;-69
2022/04/08 11:17:09;;;;;;;;;;;;;;;;;;1549533;28;83771;-69
2022/04/08 11:17:54;;;;;;;;;;;;;;;;;;1549399;28;83837;-69
2022/04/08 11:18:39;;;;;;;;;;;;;;;;;;1549360;28;83909;-69
2022/04/08 11:19:24;;;;;;;;;;;;;;;;;;1549386;28;83664;-69
2022/04/08 11:20:09;;;;;;;;;;;;;;;;;;1549513;28;83773;-69
2022/04/08 11:20:55;;;;;;;;;;;;;;;;;;1550620;28;84463;-69
2022/04/08 11:21:40;;;;;;;;;;;;;;;;;;1549418;28;83834;-69
2022/04/08 11:22:25;;;;;;;;;;;;;;;;;;1549099;28;83812;-70
2022/04/08 11:23:10;;;;;;;;;;;;;;;;;;1557763;28;83572;-70
2022/04/08 11:23:56;;;;;;;;;;;;;;;;;;1555267;28;83249;-70
2022/04/08 11:24:42;;;;;;;;;;;;;;;;;;1553182;28;83564;-69
2022/04/08 11:25:27;;;;;;;;;;;;;;;;;;1549775;28;83093;-70
2022/04/08 11:26:12;;;;;;;;;;;;;;;;;;1554451;28;83368;-70
2022/04/08 11:26:57;;;;;;;;;;;;;;;;;;1555586;28;83447;-69
2022/04/08 11:27:42;;;;;;;;;;;;;;;;;;1555610;28;83515;-69
2022/04/08 11:28:27;;;;;;;;;;;;;;;;;;1555517;28;84388;-69
2022/04/08 11:29:12;;;;;;;;;;;;;;;;;;1553939;28;83423;-69
2022/04/08 11:29:57;;;;;;;;;;;;;;;;;;1554394;28;83447;-69
2022/04/08 11:30:43;;;;;;;;;;;;;;;;;;1555327;28;83679;-69
2022/04/08 11:31:28;;;;;;;;;;;;;;;;;;1555561;28;83449;-69
2022/04/08 11:32:13;;;;;;;;;;;;;;;;;;1554286;28;83346;-69
2022/04/08 11:32:58;;;;;;;;;;;;;;;;;;1553758;28;83243;-70
2022/04/08 11:33:43;;;;;;;;;;;;;;;;;;1554765;28;83602;-69
2022/04/08 11:34:28;;;;;;;;;;;;;;;;;;1555139;28;83442;-69
2022/04/08 11:35:14;;;;;;;;;;;;;;;;;;1554860;28;83328;-70
2022/04/08 11:36:00;;;;;;;;;;;;;;;;;;1554847;28;83345;-69
2022/04/08 11:36:46;;;;;;;;;;;;;;;;;;1555279;28;83131;-69
2022/04/08 11:37:31;;;;;;;;;;;;;;;;;;1555517;28;83581;-69
2022/04/08 11:38:16;;;;;;;;;;;;;;;;;;1557562;28;83453;-72
2022/04/08 11:39:01;;;;;;;;;;;;;;;;;;1537765;28;100814;-72
2022/04/08 11:39:47;;;;;;;;;;;;;;;;;;1533924;28;87956;-71
2022/04/08 11:40:32;;;;;;;;;;;;;;;;;;1557309;27;83333;-72
2022/04/08 11:41:17;;;;;;;;;;;;;;;;;;1554104;28;83226;-72
2022/04/08 11:42:04;;;;;;;;;;;;;;;;;;1555800;28;83323;-72
2022/04/08 11:42:49;;;;;;;;;;;;;;;;;;1555596;28;83283;-71
2022/04/08 11:43:34;;;;;;;;;;;;;;;;;;1555462;28;83582;-72
2022/04/08 11:44:19;;;;;;;;;;;;;;;;;;1558438;28;83470;-72
2022/04/08 11:45:04;;;;;;;;;;;;;;;;;;1555803;28;83035;-72
2022/04/08 11:45:50;;;;;;;;;;;;;;;;;;1555597;28;83642;-71
2022/04/08 11:46:35;;;;;;;;;;;;;;;;;;1555610;28;83489;-72
2022/04/08 11:47:20;;;;;;;;;;;;;;;;;;1555643;28;83336;-72
2022/04/08 11:48:05;;;;;;;;;;;;;;;;;;1555272;28;83168;-72
2022/04/08 11:48:50;;;;;;;;;;;;;;;;;;1555509;28;83347;-72
2022/04/08 11:49:35;;;;;;;;;;;;;;;;;;1555510;28;83294;-72
2022/04/08 11:50:20;;;;;;;;;;;;;;;;;;1554010;28;83306;-72
2022/04/08 11:51:06;;;;;;;;;;;;;;;;;;1552845;28;83737;-71
2022/04/08 11:51:51;;;;;;;;;;;;;;;;;;1551322;28;83932;-72
2022/04/08 11:52:37;;;;;;;;;;;;;;;;;;1551485;28;83306;-72
2022/04/08 11:53:22;;;;;;;;;;;;;;;;;;1550491;28;83406;-71
2022/04/08 11:54:07;;;;;;;;;;;;;;;;;;1551874;28;83263;-72
2022/04/08 11:54:52;;;;;;;;;;;;;;;;;;1551446;28;83891;-71
2022/04/08 11:55:37;;;;;;;;;;;;;;;;;;1549750;28;83389;-71
2022/04/08 11:56:23;;;;;;;;;;;;;;;;;;1551159;28;83966;-71
2022/04/08 11:57:08;;;;;;;;;;;;;;;;;;1550877;28;83179;-72
2022/04/08 11:57:53;;;;;;;;;;;;;;;;;;1550859;28;83836;-71
2022/04/08 11:58:38;;;;;;;;;;;;;;;;;;1550853;28;83441;-71
2022/04/08 11:59:23;;;;;;;;;;;;;;;;;;1551335;28;83755;-71
2022/04/08 12:00:08;;;;;;;;;;;;;;;;;;1551378;28;83555;-71
2022/04/08 12:00:53;;;;;;;;;;;;;;;;;;1551170;28;83940;-71
2022/04/08 12:01:38;;;;;;;;;;;;;;;;;;1551217;28;83363;-71
2022/04/08 12:02:23;;;;;;;;;;;;;;;;;;1551408;28;83287;-71
2022/04/08 12:03:09;;;;;;;;;;;;;;;;;;1551415;28;83289;-71
2022/04/08 12:03:54;;;;;;;;;;;;;;;;;;1551354;28;83353;-71
2022/04/08 12:04:39;;;;;;;;;;;;;;;;;;1551233;28;83907;-71
2022/04/08 12:05:29;;;;;;;;;;;;;;;;;;1552588;28;83606;-71
2022/04/08 12:06:14;;;;;;;;;;;;;;;;;;1550713;28;83864;-71
2022/04/08 12:07:00;;;;;;;;;;;;;;;;;;1551043;28;83778;-72
2022/04/08 12:07:45;;;;;;;;;;;;;;;;;;1545591;28;85014;-71
2022/04/08 12:08:30;;;;;;;;;;;;;;;;;;1544509;28;83127;-72
2022/04/08 12:09:15;;;;;;;;;;;;;;;;;;1539501;27;83614;-72
2022/04/08 12:10:00;;;;;;;;;;;;;;;;;;1537902;28;83161;-71
2022/04/08 12:10:45;;;;;;;;;;;;;;;;;;1538606;28;83841;-71
2022/04/08 12:11:32;;;;;;;;;;;;;;;;;;1543770;28;85049;-71
2022/04/08 12:12:17;;;;;;;;;;;;;;;;;;1544569;28;84391;-72
2022/04/08 12:13:02;;;;;;;;;;;;;;;;;;1540583;28;83902;-71
2022/04/08 12:13:48;;;;;;;;;;;;;;;;;;1544379;28;84520;-71
2022/04/08 12:14:33;;;;;;;;;;;;;;;;;;1544530;28;84294;-71
2022/04/08 12:15:18;;;;;;;;;;;;;;;;;;1540831;28;84248;-71
2022/04/08 12:16:03;;;;;;;;;;;;;;;;;;1532907;28;84305;-71
2022/04/08 12:16:48;;;;;;;;;;;;;;;;;;1532771;28;83889;-71
2022/04/08 12:17:33;;;;;;;;;;;;;;;;;;1532668;28;84176;-71
2022/04/08 12:18:19;;;;;;;;;;;;;;;;;;1532786;28;83925;-71
2022/04/08 12:19:05;;;;;;;;;;;;;;;;;;1533075;28;83887;-71
2022/04/08 12:19:51;;;;;;;;;;;;;;;;;;1532205;28;83744;-71
2022/04/08 12:20:36;;;;;;;;;;;;;;;;;;1532443;28;83686;-71
2022/04/08 12:21:22;;;;;;;;;;;;;;;;;;1532726;28;83847;-71
2022/04/08 12:22:07;;;;;;;;;;;;;;;;;;1532812;28;83335;-71
2022/04/08 12:22:52;;;;;;;;;;;;;;;;;;1532749;28;84083;-71
2022/04/08 12:23:37;;;;;;;;;;;;;;;;;;1532843;28;83738;-71
2022/04/08 12:24:22;;;;;;;;;;;;;;;;;;1532698;28;85052;-71
2022/04/08 12:25:07;;;;;;;;;;;;;;;;;;1532005;28;84154;-71
2022/04/08 12:25:52;;;;;;;;;;;;;;;;;;1532186;28;83852;-71
2022/04/08 12:26:38;;;;;;;;;;;;;;;;;;1532481;28;83138;-71
2022/04/08 12:27:24;;;;;;;;;;;;;;;;;;1535618;28;83164;-71
2022/04/08 12:28:09;;;;;;;;;;;;;;;;;;1532898;28;83137;-71
2022/04/08 12:28:54;;;;;;;;;;;;;;;;;;1532505;28;83570;-71
2022/04/08 12:29:40;;;;;;;;;;;;;;;;;;1532517;28;83616;-71
2022/04/08 12:30:25;;;;;;;;;;;;;;;;;;1532708;28;83558;-71
2022/04/08 12:31:10;;;;;;;;;;;;;;;;;;1532791;28;83390;-71
2022/04/08 12:31:55;;;;;;;;;;;;;;;;;;1532751;28;83473;-71
2022/04/08 12:32:42;;;;;;;;;;;;;;;;;;1532623;28;83442;-71
2022/04/08 12:33:27;;;;;;;;;;;;;;;;;;1532088;28;83640;-71
2022/04/08 12:34:14;;;;;;;;;;;;;;;;;;1532370;28;83448;-71
2022/04/08 12:34:59;;;;;;;;;;;;;;;;;;1531529;28;83301;-71
2022/04/08 12:35:44;;;;;;;;;;;;;;;;;;1532643;28;83442;-71
2022/04/08 12:36:30;;;;;;;;;;;;;;;;;;1532552;28;83080;-71
2022/04/08 12:37:15;;;;;;;;;;;;;;;;;;1532819;28;83384;-71
2022/04/08 12:38:03;;;;;;;;;;;;;;;;;;1532686;28;83469;-72
2022/04/08 12:38:48;;;;;;;;;;;;;;;;;;1532754;28;83429;-72
2022/04/08 12:39:34;;;;;;;;;;;;;;;;;;1532045;28;83503;-71
2022/04/08 12:40:19;;;;;;;;;;;;;;;;;;1532520;28;83258;-71
2022/04/08 12:41:05;;;;;;;;;;;;;;;;;;1532564;28;83324;-71
2022/04/08 12:41:50;;;;;;;;;;;;;;;;;;1532684;28;83387;-72
2022/04/08 12:42:36;;;;;;;;;;;;;;;;;;1532595;28;83295;-72
2022/04/08 12:43:21;;;;;;;;;;;;;;;;;;1532675;28;83387;-71
2022/04/08 12:44:06;;;;;;;;;;;;;;;;;;1532686;28;82964;-72
2022/04/08 12:44:51;;;;;;;;;;;;;;;;;;1532606;28;83336;-72
2022/04/08 12:45:36;;;;;;;;;;;;;;;;;;1532539;28;82992;-71
2022/04/08 12:46:21;;;;;;;;;;;;;;;;;;1532654;28;83383;-71
2022/04/08 12:47:07;;;;;;;;;;;;;;;;;;1532716;28;83279;-71
2022/04/08 12:47:52;;;;;;;;;;;;;;;;;;1532585;28;83524;-71
2022/04/08 12:48:37;;;;;;;;;;;;;;;;;;1535237;28;83458;-71
2022/04/08 12:49:23;;;;;;;;;;;;;;;;;;1531425;28;83407;-72
2022/04/08 12:50:10;;;;;;;;;;;;;;;;;;1532607;28;83446;-72
2022/04/08 12:50:56;;;;;;;;;;;;;;;;;;1532494;28;83394;-71
2022/04/08 12:51:42;;;;;;;;;;;;;;;;;;1532073;28;83326;-71
2022/04/08 12:52:27;;;;;;;;;;;;;;;;;;1532065;28;83481;-72
2022/04/08 12:53:12;;;;;;;;;;;;;;;;;;1532761;28;83393;-72
2022/04/08 12:53:57;;;;;;;;;;;;;;;;;;1532609;28;83914;-71
2022/04/08 12:54:42;;;;;;;;;;;;;;;;;;1531967;28;83896;-72
2022/04/08 12:55:27;;;;;;;;;;;;;;;;;;1532657;28;83375;-72
2022/04/08 12:56:12;;;;;;;;;;;;;;;;;;1532720;28;83907;-72
2022/04/08 12:56:58;;;;;;;;;;;;;;;;;;1532597;28;83320;-71
2022/04/08 12:57:43;;;;;;;;;;;;;;;;;;1531996;28;84067;-71
2022/04/08 12:58:28;;;;;;;;;;;;;;;;;;1532115;28;84462;-72
2022/04/08 12:59:14;;;;;;;;;;;;;;;;;;1532119;28;83551;-71
2022/04/08 12:59:59;;;;;;;;;;;;;;;;;;1532225;28;83347;-71
2022/04/08 13:00:46;;;;;;;;;;;;;;;;;;1532519;28;83831;-72
2022/04/08 13:01:31;;;;;;;;;;;;;;;;;;1532634;28;83987;-71
2022/04/08 13:02:17;;;;;;;;;;;;;;;;;;1532617;28;83640;-71
2022/04/08 13:03:02;;;;;;;;;;;;;;;;;;1531591;28;83281;-71
2022/04/08 13:03:47;;;;;;;;;;;;;;;;;;1531926;28;83388;-71
2022/04/08 13:04:32;;;;;;;;;;;;;;;;;;1532109;28;83454;-71
2022/04/08 13:05:18;;;;;;;;;;;;;;;;;;1532669;28;83401;-71
2022/04/08 13:06:03;;;;;;;;;;;;;;;;;;1532578;28;83327;-71
2022/04/08 13:06:49;;;;;;;;;;;;;;;;;;1532401;28;83562;-71
2022/04/08 13:07:35;;;;;;;;;;;;;;;;;;1532544;28;83408;-66
2022/04/08 13:08:22;;;;;;;;;;;;;;;;;;1508654;28;83566;-68
2022/04/08 13:09:07;;;;;;;;;;;;;;;;;;1532561;28;83539;-73
2022/04/08 13:09:53;;;;;;;;;;;;;;;;;;1531788;28;83412;-72
2022/04/08 13:10:38;;;;;;;;;;;;;;;;;;1535111;28;83490;-72
2022/04/08 13:11:23;;;;;;;;;;;;;;;;;;1532527;28;83863;-72
2022/04/08 13:12:08;;;;;;;;;;;;;;;;;;1532594;28;83443;-72
2022/04/08 13:12:53;;;;;;;;;;;;;;;;;;1532254;28;83688;-72
2022/04/08 13:13:39;;;;;;;;;;;;;;;;;;1532335;28;83818;-72
2022/04/08 13:14:24;;;;;;;;;;;;;;;;;;1532414;28;84215;-73
2022/04/08 13:15:09;;;;;;;;;;;;;;;;;;1532494;28;83002;-73
2022/04/08 13:15:54;;;;;;;;;;;;;;;;;;1532402;28;84403;-73
2022/04/08 13:16:39;;;;;;;;;;;;;;;;;;1532375;28;83862;-73
2022/04/08 13:17:24;;;;;;;;;;;;;;;;;;1532525;28;83866;-73
2022/04/08 13:18:10;;;;;;;;;;;;;;;;;;1532218;28;83926;-73
2022/04/08 13:18:55;;;;;;;;;;;;;;;;;;1531930;28;84001;-73
2022/04/08 13:19:40;;;;;;;;;;;;;;;;;;1532288;28;84349;-71
2022/04/08 13:20:25;;;;;;;;;;;;;;;;;;1532493;28;83870;-73
2022/04/08 13:21:10;;;;;;;;;;;;;;;;;;1532512;28;84229;-72
2022/04/08 13:21:56;;;;;;;;;;;;;;;;;;1532292;28;84018;-71
2022/04/08 13:22:41;;;;;;;;;;;;;;;;;;1532408;28;83787;-73
2022/04/08 13:23:26;;;;;;;;;;;;;;;;;;1532549;28;83176;-73
2022/04/08 13:24:11;;;;;;;;;;;;;;;;;;1531727;28;83846;-71
2022/04/08 13:24:56;;;;;;;;;;;;;;;;;;1529396;28;83779;-72
2022/04/08 13:25:41;;;;;;;;;;;;;;;;;;1529577;28;83894;-73
2022/04/08 13:26:27;;;;;;;;;;;;;;;;;;1532062;28;83835;-73
2022/04/08 13:27:12;;;;;;;;;;;;;;;;;;1532363;28;83842;-73
2022/04/08 13:27:57;;;;;;;;;;;;;;;;;;1532250;28;83851;-73
2022/04/08 13:28:43;;;;;;;;;;;;;;;;;;1532201;28;83876;-75
2022/04/08 13:29:28;;;;;;;;;;;;;;;;;;1532300;28;84003;-73
2022/04/08 13:30:14;;;;;;;;;;;;;;;;;;1532293;28;83779;-72
2022/04/08 13:30:59;;;;;;;;;;;;;;;;;;1531927;28;84535;-72
2022/04/08 13:31:44;;;;;;;;;;;;;;;;;;1535157;28;83904;-72
2022/04/08 13:32:35;;;;;;;;;;;;;;;;;;1532276;28;83251;-72
2022/04/08 13:33:20;;;;;;;;;;;;;;;;;;1530235;28;83412;-76
2022/04/08 13:34:05;;;;;;;;;;;;;;;;;;1531534;28;83457;-72
2022/04/08 13:34:51;;;;;;;;;;;;;;;;;;1532128;28;83376;-72
2022/04/08 13:35:36;;;;;;;;;;;;;;;;;;1532190;28;83441;-73
2022/04/08 13:36:21;;;;;;;;;;;;;;;;;;1532344;28;83304;-73
2022/04/08 13:37:08;;;;;;;;;;;;;;;;;;1532239;28;83425;-73
2022/04/08 13:37:53;;;;;;;;;;;;;;;;;;1532183;28;83418;-73
2022/04/08 13:38:38;;;;;;;;;;;;;;;;;;1532134;28;83396;-73
2022/04/08 13:39:23;;;;;;;;;;;;;;;;;;1532068;28;83120;-74
2022/04/08 13:40:09;;;;;;;;;;;;;;;;;;1532272;28;83450;-75
2022/04/08 13:40:54;;;;;;;;;;;;;;;;;;1531900;28;83217;-75
2022/04/08 13:41:40;;;;;;;;;;;;;;;;;;1531656;28;83494;-74
2022/04/08 13:42:25;;;;;;;;;;;;;;;;;;1531841;28;83218;-72
2022/04/08 13:43:10;;;;;;;;;;;;;;;;;;1532202;28;83371;-73
2022/04/08 13:43:55;;;;;;;;;;;;;;;;;;1531889;28;83539;-73
2022/04/08 13:44:40;;;;;;;;;;;;;;;;;;1532189;28;83256;-74
2022/04/08 13:45:25;;;;;;;;;;;;;;;;;;1532255;28;83146;-74
2022/04/08 13:46:10;;;;;;;;;;;;;;;;;;1532347;28;83106;-60
2022/04/08 13:46:55;;;;;;;;;;;;;;;;;;1532209;28;83458;-61
2022/04/08 13:47:40;;;;;;;;;;;;;;;;;;1531959;28;83366;-61
2022/04/08 13:48:26;;;;;;;;;;;;;;;;;;1532197;28;83510;-60
2022/04/08 13:49:11;;;;;;;;;;;;;;;;;;1531528;28;83483;-60
2022/04/08 13:49:56;;;;;;;;;;;;;;;;;;1531954;28;83575;-58
2022/04/08 13:50:41;;;;;;;;;;;;;;;;;;1532130;28;83555;-60
2022/04/08 13:51:26;;;;;;;;;;;;;;;;;;1532046;28;83266;-60
2022/04/08 13:52:11;;;;;;;;;;;;;;;;;;1531761;28;83448;-59
2022/04/08 13:52:56;;;;;;;;;;;;;;;;;;1531909;28;83610;-59
2022/04/08 13:53:42;;;;;;;;;;;;;;;;;;1534576;28;83197;-58
2022/04/08 13:54:27;;;;;;;;;;;;;;;;;;1531679;28;83499;-59
2022/04/08 13:55:14;;;;;;;;;;;;;;;;;;1532139;28;83445;-60
2022/04/08 13:55:59;;;;;;;;;;;;;;;;;;1531965;28;83500;-61
2022/04/08 13:56:44;;;;;;;;;;;;;;;;;;1532013;28;83378;-59
2022/04/08 13:57:29;;;;;;;;;;;;;;;;;;1532014;28;83474;-59
2022/04/08 13:58:14;;;;;;;;;;;;;;;;;;1532056;28;83383;-59
2022/04/08 13:58:59;;;;;;;;;;;;;;;;;;1531903;28;83440;-60
2022/04/08 13:59:44;;;;;;;;;;;;;;;;;;1531608;28;83834;-60
2022/04/08 14:00:29;;;;;;;;;;;;;;;;;;1529722;28;83653;-59
2022/04/08 14:01:15;;;;;;;;;;;;;;;;;;1526348;28;83550;-58
2022/04/08 14:02:00;;;;;;;;;;;;;;;;;;1525924;28;83258;-59
2022/04/08 14:02:45;;;;;;;;;;;;;;;;;;1526010;28;83317;-59
2022/04/08 14:03:30;;;;;;;;;;;;;;;;;;1526264;28;83508;-60
2022/04/08 14:04:15;;;;;;;;;;;;;;;;;;1531341;28;83351;-59
2022/04/08 14:05:01;;;;;;;;;;;;;;;;;;1532843;28;83284;-60
2022/04/08 14:05:46;;;;;;;;;;;;;;;;;;1530551;28;83298;-60
2022/04/08 14:06:31;;;;;;;;;;;;;;;;;;1532246;28;83424;-60
2022/04/08 14:07:16;;;;;;;;;;;;;;;;;;1531996;28;83500;-59
2022/04/08 14:08:01;;;;;;;;;;;;;;;;;;1532066;28;83398;-63
2022/04/08 14:08:47;;;;;;;;;;;;;;;;;;1531552;28;83586;-62
2022/04/08 14:09:32;;;;;;;;;;;;;;;;;;1531676;28;83407;-59
2022/04/08 14:10:19;;;;;;;;;;;;;;;;;;1527320;28;83453;-58
2022/04/08 14:11:04;;;;;;;;;;;;;;;;;;1525963;28;83650;-59
2022/04/08 14:11:49;;;;;;;;;;;;;;;;;;1526083;28;83533;-60
2022/04/08 14:12:34;;;;;;;;;;;;;;;;;;1526328;28;83693;-60
2022/04/08 14:13:19;;;;;;;;;;;;;;;;;;1527105;28;83326;-60
2022/04/08 14:14:04;;;;;;;;;;;;;;;;;;1525990;28;83419;-60
2022/04/08 14:14:49;;;;;;;;;;;;;;;;;;1528652;28;83607;-59
2022/04/08 14:15:35;;;;;;;;;;;;;;;;;;1526046;28;83860;-60
2022/04/08 14:16:20;;;;;;;;;;;;;;;;;;1525846;28;83924;-60
2022/04/08 14:17:05;;;;;;;;;;;;;;;;;;1541238;28;84958;-60
2022/04/08 14:17:50;;;;;;;;;;;;;;;;;;1543827;28;83800;-62
2022/04/08 14:18:35;;;;;;;;;;;;;;;;;;1538842;28;83632;-62
2022/04/08 14:19:20;;;;;;;;;;;;;;;;;;1532203;28;83695;-62
2022/04/08 14:20:05;;;;;;;;;;;;;;;;;;1530717;28;83860;-56
2022/04/08 14:20:50;;;;;;;;;;;;;;;;;;1531825;28;83847;-59
2022/04/08 14:21:35;;;;;;;;;;;;;;;;;;1529767;28;83886;-67
2022/04/08 14:22:21;;;;;;;;;;;;;;;;;;1524623;28;97315;-73
2022/04/08 14:23:06;;;;;;;;;;;;;;;;;;1524584;28;98727;-72
2022/04/08 14:23:51;;;;;;;;;;;;;;;;;;1522682;28;102203;-72
2022/04/08 14:24:36;;;;;;;;;;;;;;;;;;1523776;28;98673;-72
2022/04/08 14:25:21;;;;;;;;;;;;;;;;;;1523380;28;96890;-73
2022/04/08 14:26:06;;;;;;;;;;;;;;;;;;1522831;28;108096;-73
2022/04/08 14:26:51;;;;;;;;;;;;;;;;;;1522079;28;95917;-73
2022/04/08 14:27:36;;;;;;;;;;;;;;;;;;1521367;28;99885;-72
2022/04/08 14:28:24;;;;;;;;;;;;;;;;;;1519827;28;115495;-72
2022/04/08 14:29:09;;;;;;;;;;;;;;;;;;1523740;28;89904;-72
2022/04/08 14:29:54;;;;;;;;;;;;;;;;;;1523229;28;104845;-72
2022/04/08 14:30:40;;;;;;;;;;;;;;;;;;1524184;28;97933;-72
2022/04/08 14:31:25;;;;;;;;;;;;;;;;;;1523808;28;95550;-72
2022/04/08 14:32:11;;;;;;;;;;;;;;;;;;1525155;28;90948;-72
2022/04/08 14:32:56;;;;;;;;;;;;;;;;;;1523932;28;96575;-72
2022/04/08 14:33:41;;;;;;;;;;;;;;;;;;1523326;28;97915;-72
2022/04/08 14:34:26;;;;;;;;;;;;;;;;;;1525395;28;94315;-72
2022/04/08 14:35:12;;;;;;;;;;;;;;;;;;1525983;28;91337;-72
2022/04/08 14:35:58;;;;;;;;;;;;;;;;;;1526044;28;90019;-72
2022/04/08 14:36:43;;;;;;;;;;;;;;;;;;1528855;28;95629;-72
2022/04/08 14:37:30;;;;;;;;;;;;;;;;;;1526244;28;100622;-72
2022/04/08 14:38:15;;;;;;;;;;;;;;;;;;1526378;28;86187;-72
2022/04/08 14:39:00;;;;;;;;;;;;;;;;;;1525242;28;96440;-72
2022/04/08 14:39:45;;;;;;;;;;;;;;;;;;1525616;28;98564;-72
2022/04/08 14:40:30;;;;;;;;;;;;;;;;;;1525350;28;93830;-72
2022/04/08 14:41:17;;;;;;;;;;;;;;;;;;1526509;28;92397;-72
2022/04/08 14:42:02;;;;;;;;;;;;;;;;;;1524085;28;93551;-72
2022/04/08 14:42:47;;;;;;;;;;;;;;;;;;1521380;28;91869;-72
2022/04/08 14:43:32;;;;;;;;;;;;;;;;;;1521234;28;99032;-72
2022/04/08 14:44:17;;;;;;;;;;;;;;;;;;1520825;28;96605;-72
2022/04/08 14:45:02;;;;;;;;;;;;;;;;;;1520848;28;92431;-72
2022/04/08 14:45:47;;;;;;;;;;;;;;;;;;1520531;28;92983;-72
2022/04/08 14:46:32;;;;;;;;;;;;;;;;;;1521211;28;91382;-72
2022/04/08 14:47:17;;;;;;;;;;;;;;;;;;1520981;28;92313;-72
2022/04/08 14:48:03;;;;;;;;;;;;;;;;;;1521526;28;95404;-72
2022/04/08 14:48:48;;;;;;;;;;;;;;;;;;1526736;28;96997;-72
2022/04/08 14:49:33;;;;;;;;;;;;;;;;;;1527192;28;92770;-72
2022/04/08 14:50:18;;;;;;;;;;;;;;;;;;1526903;28;92605;-72
2022/04/08 14:51:03;;;;;;;;;;;;;;;;;;1525973;28;94289;-72
2022/04/08 14:51:48;;;;;;;;;;;;;;;;;;1526775;28;89543;-72
2022/04/08 14:52:33;;;;;;;;;;;;;;;;;;1526728;28;92722;-72
2022/04/08 14:53:18;;;;;;;;;;;;;;;;;;1525986;28;98368;-72
2022/04/08 14:54:03;;;;;;;;;;;;;;;;;;1526623;28;97963;-72
2022/04/08 14:54:49;;;;;;;;;;;;;;;;;;1526762;28;100314;-72
2022/04/08 14:55:34;;;;;;;;;;;;;;;;;;1526869;28;94695;-72
2022/04/08 14:56:19;;;;;;;;;;;;;;;;;;1526810;28;92611;-72
2022/04/08 14:57:04;;;;;;;;;;;;;;;;;;1526642;28;93076;-72
2022/04/08 14:57:49;;;;;;;;;;;;;;;;;;1529633;28;94082;-72
2022/04/08 14:58:34;;;;;;;;;;;;;;;;;;1526902;28;92518;-72
2022/04/08 14:59:19;;;;;;;;;;;;;;;;;;1526716;28;91217;-72
2022/04/08 15:00:04;;;;;;;;;;;;;;;;;;1526244;28;93365;-72
2022/04/08 15:00:49;;;;;;;;;;;;;;;;;;1526625;28;91144;-72
2022/04/08 15:01:34;;;;;;;;;;;;;;;;;;1527034;28;91306;-72
2022/04/08 15:02:20;;;;;;;;;;;;;;;;;;1526725;28;90491;-72
2022/04/08 15:03:05;;;;;;;;;;;;;;;;;;1526184;28;92320;-72
2022/04/08 15:03:52;;;;;;;;;;;;;;;;;;1526880;28;92524;-72
2022/04/08 15:04:37;;;;;;;;;;;;;;;;;;1527002;28;92494;-72
2022/04/08 15:05:22;;;;;;;;;;;;;;;;;;1527054;28;95149;-72
2022/04/08 15:06:07;;;;;;;;;;;;;;;;;;1526783;28;90755;-72
2022/04/08 15:06:52;;;;;;;;;;;;;;;;;;1526527;28;90758;-72
2022/04/08 15:07:37;;;;;;;;;;;;;;;;;;1526160;28;93857;-72
2022/04/08 15:08:22;;;;;;;;;;;;;;;;;;1525263;28;94929;-72
2022/04/08 15:09:07;;;;;;;;;;;;;;;;;;1526535;28;90124;-72
2022/04/08 15:09:52;;;;;;;;;;;;;;;;;;1526652;28;93632;-72
2022/04/08 15:10:38;;;;;;;;;;;;;;;;;;1526829;28;90448;-72
2022/04/08 15:11:23;;;;;;;;;;;;;;;;;;1526844;28;91773;-72
2022/04/08 15:12:08;;;;;;;;;;;;;;;;;;1526695;28;90343;-72
2022/04/08 15:12:53;;;;;;;;;;;;;;;;;;1526819;28;89723;-72
2022/04/08 15:13:38;;;;;;;;;;;;;;;;;;1526982;28;88986;-72
2022/04/08 15:14:23;;;;;;;;;;;;;;;;;;1526648;28;88752;-72
2022/04/08 15:15:09;;;;;;;;;;;;;;;;;;1526897;28;92011;-72
2022/04/08 15:15:54;;;;;;;;;;;;;;;;;;1526708;28;90904;-72
2022/04/08 15:16:39;;;;;;;;;;;;;;;;;;1526893;28;91698;-72
2022/04/08 15:17:24;;;;;;;;;;;;;;;;;;1526846;28;89340;-72
2022/04/08 15:18:10;;;;;;;;;;;;;;;;;;1526171;28;90095;-72
2022/04/08 15:18:55;;;;;;;;;;;;;;;;;;1529387;28;87684;-72
2022/04/08 15:19:40;;;;;;;;;;;;;;;;;;1526827;28;88676;-72
2022/04/08 15:20:25;;;;;;;;;;;;;;;;;;1527045;28;90328;-72
2022/04/08 15:21:10;;;;;;;;;;;;;;;;;;1526749;28;89584;-72
2022/04/08 15:21:56;;;;;;;;;;;;;;;;;;1526639;28;90778;-72
2022/04/08 15:22:41;;;;;;;;;;;;;;;;;;1526457;28;89475;-72
2022/04/08 15:23:26;;;;;;;;;;;;;;;;;;1526765;28;89379;-72
2022/04/08 15:24:11;;;;;;;;;;;;;;;;;;1526748;28;89847;-72
2022/04/08 15:24:56;;;;;;;;;;;;;;;;;;1526754;28;89476;-72
2022/04/08 15:25:41;;;;;;;;;;;;;;;;;;1526879;28;88512;-72
2022/04/08 15:26:27;;;;;;;;;;;;;;;;;;1527452;28;90109;-72
2022/04/08 15:27:13;;;;;;;;;;;;;;;;;;1527842;28;92947;-71
2022/04/08 15:27:58;;;;;;;;;;;;;;;;;;1527952;28;87785;-71
2022/04/08 15:28:43;;;;;;;;;;;;;;;;;;1527586;28;85526;-72
2022/04/08 15:29:28;;;;;;;;;;;;;;;;;;1527964;28;88666;-71
2022/04/08 15:30:13;;;;;;;;;;;;;;;;;;1527629;28;90275;-71
2022/04/08 15:30:58;;;;;;;;;;;;;;;;;;1527898;28;89139;-71
2022/04/08 15:31:43;;;;;;;;;;;;;;;;;;1527966;28;88129;-71
2022/04/08 15:32:28;;;;;;;;;;;;;;;;;;1526948;28;89326;-71
2022/04/08 15:33:14;;;;;;;;;;;;;;;;;;1526041;28;88246;-71
2022/04/08 15:33:59;;;;;;;;;;;;;;;;;;1527481;28;89592;-71
2022/04/08 15:34:44;;;;;;;;;;;;;;;;;;1527906;28;88212;-71
2022/04/08 15:35:33;;;;;;;;;;;;;;;;;;1527894;28;89327;-71
2022/04/08 15:36:18;;;;;;;;;;;;;;;;;;1527554;28;86324;-71
2022/04/08 15:37:03;;;;;;;;;;;;;;;;;;1527780;28;89547;-71
2022/04/08 15:37:49;;;;;;;;;;;;;;;;;;1527043;28;89550;-71
2022/04/08 15:38:34;;;;;;;;;;;;;;;;;;1527975;28;90419;-71
2022/04/08 15:39:19;;;;;;;;;;;;;;;;;;1527476;28;89170;-72
2022/04/08 15:40:04;;;;;;;;;;;;;;;;;;1527724;28;89621;-72
2022/04/08 15:40:49;;;;;;;;;;;;;;;;;;1530295;28;90806;-72
2022/04/08 15:41:37;;;;;;;;;;;;;;;;;;1527293;28;90603;-72
2022/04/08 15:42:22;;;;;;;;;;;;;;;;;;1528090;28;83468;-72
2022/04/08 15:43:11;;;;;;;;;;;;;;;;;;1527328;28;90697;-72
2022/04/08 15:43:56;;;;;;;;;;;;;;;;;;1527865;28;88079;-73
2022/04/08 15:44:41;;;;;;;;;;;;;;;;;;1525934;28;90941;-72
2022/04/08 15:45:27;;;;;;;;;;;;;;;;;;1527401;28;90778;-72
2022/04/08 15:46:12;;;;;;;;;;;;;;;;;;1527678;28;89831;-72
2022/04/08 15:46:57;;;;;;;;;;;;;;;;;;1527537;28;89538;-72
2022/04/08 15:47:42;;;;;;;;;;;;;;;;;;1527225;28;89698;-72
2022/04/08 15:48:28;;;;;;;;;;;;;;;;;;1526779;28;89717;-72
2022/04/08 15:49:13;;;;;;;;;;;;;;;;;;1527686;28;88094;-72